Time;durP1;ratioP1;P1;durP2;ratioP2;P2;SDS_P1;SDS_P2;PMS_P1;PMS_P2;Temp;Humidity;BMP_temperature;BMP_pressure;BME280_temperature;BME280_humidity;BME280_pressure;Samples;Min_cycle;Max_cycle;Signal;HPM_P1;HPM_P2
2022/06/07 00:01:51;;;;;;;0.20;0.20;;;;;;;;;;21044627;28;20281;-73
2022/06/07 00:11:53;;;;;;;1.63;0.32;;;;;;;;;;21026679;28;20218;-72
2022/06/07 00:21:55;;;;;;;0.60;0.30;;;;;;;;;;21042396;28;20207;-72
2022/06/07 00:31:58;;;;;;;0.20;0.20;;;;;;;;;;21042014;28;20650;-73
2022/06/07 00:42:00;;;;;;;0.40;0.33;;;;;;;;;;21074584;28;20211;-73
2022/06/07 00:52:02;;;;;;;0.53;0.33;;;;;;;;;;20961752;22;20365;-85
2022/06/07 01:02:04;;;;;;;0.53;0.30;;;;;;;;;;20936746;28;20299;-83
2022/06/07 01:12:13;;;;;;;0.30;0.30;;;;;;;;;;20926982;28;20228;-83
2022/06/07 01:22:16;;;;;;;0.30;0.20;;;;;;;;;;20939065;28;21061;-85
2022/06/07 01:32:18;;;;;;;0.70;0.30;;;;;;;;;;20957075;28;20773;-85
2022/06/07 01:42:21;;;;;;;1.60;0.30;;;;;;;;;;20956985;28;20220;-84
2022/06/07 01:52:25;;;;;;;0.37;0.33;;;;;;;;;;20944653;28;20224;-85
2022/06/07 02:02:31;;;;;;;0.37;0.30;;;;;;;;;;20973315;28;20271;-86
2022/06/07 02:12:34;;;;;;;0.20;0.20;;;;;;;;;;20955075;28;20224;-84
2022/06/07 02:22:37;;;;;;;0.20;0.20;;;;;;;;;;20953663;28;20712;-85
2022/06/07 02:32:40;;;;;;;0.47;0.40;;;19.80;99.90;;;;;;20937379;28;20228;-84
2022/06/07 02:42:42;;;;;;;0.30;0.23;;;;;;;;;;20935740;28;20839;-84
2022/06/07 02:52:44;;;;;;;0.73;0.30;;;;;;;;;;20953184;28;20271;-84
2022/06/07 03:02:52;;;;;;;0.50;0.30;;;;;;;;;;20935895;28;20218;-85
2022/06/07 03:12:56;;;;;;;0.50;0.30;;;;;;;;;;20983148;28;20215;-85
2022/06/07 03:23:03;;;;;;;0.43;0.40;;;;;;;;;;20949566;28;20292;-84
2022/06/07 03:33:06;;;;;;;0.47;0.40;;;;;;;;;;20939563;28;20269;-84
2022/06/07 03:43:10;;;;;;;0.67;0.37;;;;;;;;;;20987556;28;20261;-84
2022/06/07 03:53:12;;;;;;;2.10;0.33;;;19.20;99.90;;;;;;21030826;28;20235;-83
2022/06/07 04:03:18;;;;;;;0.60;0.30;;;;;;;;;;21021875;28;20231;-84
2022/06/07 04:13:22;;;;;;;1.27;0.50;;;;;;;;;;21040783;28;20529;-83
2022/06/07 04:23:26;;;;;;;1.60;0.33;;;;;;;;;;21015219;28;20288;-84
2022/06/07 04:33:59;;;;;;;1.90;0.53;;;;;;;;;;20996358;28;20218;-81
2022/06/07 04:44:02;;;;;;;0.97;0.30;;;;;;;;;;20933861;28;20216;-82
2022/06/07 04:54:05;;;;;;;2.47;0.40;;;;;;;;;;20941352;28;20290;-82
2022/06/07 05:04:12;;;;;;;1.23;0.30;;;;;;;;;;20940796;28;20223;-82
2022/06/07 05:14:17;;;;;;;0.83;0.30;;;19.50;99.90;;;;;;20940928;28;20219;-84
2022/06/07 05:24:22;;;;;;;0.60;0.30;;;;;;;;;;20958688;28;20238;-85
2022/06/07 05:34:24;;;;;;;0.33;0.30;;;;;;;;;;20938360;28;20219;-84
2022/06/07 05:44:32;;;;;;;1.07;0.30;;;;;;;;;;20938286;28;20223;-84
2022/06/07 05:54:35;;;;;;;0.77;0.30;;;19.50;99.90;;;;;;20955346;28;20253;-85
2022/06/07 06:04:38;;;;;;;0.97;0.30;;;;;;;;;;21015491;22;20223;-75
2022/06/07 06:14:42;;;;;;;0.70;0.30;;;;;;;;;;21059713;28;20223;-73
2022/06/07 06:24:52;;;;;;;2.17;0.47;;;;;;;;;;21077457;28;20219;-76
2022/06/07 06:34:54;;;;;;;1.33;0.30;;;;;;;;;;21046741;28;20215;-76
2022/06/07 06:45:00;;;;;;;0.50;0.30;;;;;;;;;;21024464;28;20236;-76
2022/06/07 06:55:04;;;;;;;0.60;0.30;;;;;;;;;;21065524;23;20255;-79
2022/06/07 07:05:06;;;;;;;2.20;0.50;;;;;;;;;;20990329;28;20240;-78
2022/06/07 07:15:13;;;;;;;0.37;0.30;;;;;;;;;;20995705;28;20214;-78
2022/06/07 07:25:34;;;;;;;0.63;0.30;;;;;;;;;;20999898;28;20258;-77
2022/06/07 07:35:37;;;;;;;0.30;0.30;;;;;;;;;;20975554;28;20285;-77
2022/06/07 07:45:44;;;;;;;0.40;0.20;;;;;;;;;;20995512;28;20281;-77
2022/06/07 07:55:51;;;;;;;0.93;0.30;;;;;;;;;;20949138;28;20277;-75
2022/06/07 08:05:54;;;;;;;1.10;0.30;;;;;;;;;;20982264;28;20581;-76
2022/06/07 08:15:56;;;;;;;0.47;0.30;;;;;;;;;;20976421;28;20213;-77
2022/06/07 08:26:15;;;;;;;0.35;0.22;;;;;;;;;;20977301;28;20222;-76
2022/06/07 08:46:42;;;;;;;0.20;0.20;;;;;;;;;;20967243;28;20221;-77
2022/06/07 08:56:44;;;;;;;0.47;0.40;;;22.60;99.90;;;;;;20948993;28;20218;-77
2022/06/07 09:06:49;;;;;;;0.17;0.17;;;23.00;99.90;;;;;;20962918;28;20224;-77
2022/06/07 09:16:51;;;;;;;0.30;0.30;;;;;;;;;;20970126;28;20753;-77
2022/06/07 09:27:22;;;;;;;0.70;0.40;;;23.20;99.90;;;;;;20989259;28;20821;-78
2022/06/07 09:37:38;;;;;;;0.20;0.20;;;;;;;;;;20993226;28;20239;-78
2022/06/07 09:47:40;;;;;;;2.40;0.40;;;;;;;;;;20973906;28;20223;-79
2022/06/07 09:57:48;;;;;;;0.47;0.30;;;24.00;99.90;;;;;;20992288;28;20205;-80
2022/06/07 10:07:50;;;;;;;0.75;0.40;;;;;;;;;;20970895;28;20582;-78
2022/06/07 10:18:23;;;;;;;0.20;0.20;;;24.40;99.90;;;;;;20970539;28;20250;-79
2022/06/07 10:28:39;;;;;;;0.25;0.20;;;24.20;99.90;;;;;;20989367;28;20783;-78
2022/06/07 10:39:08;;;;;;;0.88;0.40;;;24.00;99.90;;;;;;20983652;28;20213;-79
2022/06/07 10:49:34;;;;;;;0.35;0.28;;;24.80;99.90;;;;;;21026094;28;20214;-79
2022/06/07 10:59:38;;;;;;;0.30;0.30;;;25.00;99.90;;;;;;21010015;28;20258;-78
2022/06/07 11:09:47;;;;;;;0.55;0.40;;;24.30;99.90;;;;;;20998646;28;20236;-77
2022/06/07 11:19:51;;;;;;;0.38;0.30;;;23.90;99.90;;;;;;20998212;28;20819;-77
2022/06/07 11:30:22;;;;;;;0.32;0.20;;;24.10;98.90;;;;;;20978680;28;20221;-78
2022/06/07 11:40:29;;;;;;;0.93;0.50;;;23.90;99.90;;;;;;20991470;28;20253;-77
2022/06/07 11:50:40;;;;;;;2.60;0.40;;;;;;;;;;20961750;28;20270;-78
2022/06/07 12:00:45;;;;;;;1.58;0.50;;;24.10;99.90;;;;;;20994309;28;20216;-78
2022/06/07 12:11:02;;;;;;;1.00;0.28;;;;;;;;;;20980094;28;20710;-77
2022/06/07 12:21:14;;;;;;;0.30;0.30;;;24.90;99.90;;;;;;20959377;28;20215;-78
2022/06/07 12:31:37;;;;;;;2.20;0.30;;;24.50;99.90;;;;;;20994392;28;20265;-77
2022/06/07 12:41:54;;;;;;;0.70;0.30;;;24.90;99.90;;;;;;20973598;28;20207;-78
2022/06/07 12:52:03;;;;;;;0.55;0.40;;;;;;;;;;20987150;22;20232;-76
2022/06/07 13:02:16;;;;;;;0.20;0.20;;;25.00;99.90;;;;;;20960032;28;20672;-77
2022/06/07 13:12:21;;;;;;;0.35;0.20;;;;;;;;;;20923872;28;20223;-74
2022/06/07 13:22:23;;;;;;;0.20;0.20;;;;;;;;;;20954359;28;20237;-76
2022/06/07 13:32:29;;;;;;;1.45;0.50;;;25.60;99.90;;;;;;20982517;28;20214;-73
2022/06/07 13:42:34;;;;;;;0.55;0.30;;;;;;;;;;20962435;28;20209;-74
2022/06/07 14:02:56;;;;;;;0.20;0.20;;;;;;;;;;20865155;28;20300;-74
2022/06/07 14:12:58;;;;;;;0.17;0.17;;;;;;;;;;20953081;28;20605;-74
2022/06/07 14:23:01;;;;;;;0.22;0.20;;;;;;;;;;20972703;28;20821;-77
2022/06/07 14:33:03;;;;;;;0.20;0.20;;;;;;;;;;20939334;28;20284;-74
2022/06/07 14:43:08;;;;;;;0.40;0.30;;;24.80;99.90;;;;;;20914002;28;20704;-77
2022/06/07 14:53:11;;;;;;;0.20;0.10;;;24.70;99.90;;;;;;20960136;28;20232;-76
2022/06/07 15:03:14;;;;;;;0.25;0.17;;;;;;;;;;20984000;28;20225;-74
2022/06/07 15:13:29;;;;;;;1.05;0.30;;;24.30;99.90;;;;;;20989642;28;20237;-73
2022/06/07 15:23:31;;;;;;;2.85;0.38;;;;;;;;;;20969878;28;20207;-74
2022/06/07 15:33:36;;;;;;;0.20;0.20;;;;;;;;;;20902885;28;20247;-75
2022/06/07 15:43:38;;;;;;;0.35;0.20;;;;;;;;;;20991689;28;20766;-74
2022/06/07 15:53:42;;;;;;;0.77;0.15;;;24.10;99.90;;;;;;20920422;28;20274;-75
2022/06/07 16:03:44;;;;;;;0.52;0.20;;;;;;;;;;20906970;28;20215;-74
2022/06/07 16:13:47;;;;;;;0.47;0.30;;;23.70;99.90;;;;;;20930997;28;20214;-75
2022/06/07 16:23:50;;;;;;;0.75;0.30;;;;;;;;;;20994227;28;20292;-76
2022/06/07 16:33:51;;;;;;;0.65;0.20;;;;;;;;;;20949554;28;20259;-74
2022/06/07 16:44:02;;;;;;;0.90;0.10;;;;;;;;;;20948311;28;20214;-74
2022/06/07 16:54:04;;;;;;;1.35;0.30;;;;;;;;;;20959042;28;20297;-75
2022/06/07 17:04:10;;;;;;;0.47;0.15;;;;;;;;;;20870512;28;20234;-74
2022/06/07 17:14:12;;;;;;;0.20;0.20;;;;;;;;;;20895534;28;20196;-75
2022/06/07 17:24:14;;;;;;;0.20;0.20;;;23.50;99.90;;;;;;20878230;28;20218;-76
2022/06/07 17:34:21;;;;;;;0.60;0.35;;;;;;;;;;20924414;28;20240;-75
2022/06/07 17:44:23;;;;;;;0.85;0.20;;;;;;;;;;20976254;28;20698;-76
2022/06/07 17:54:25;;;;;;;1.00;0.30;;;;;;;;;;20974514;28;20235;-76
2022/06/07 18:04:27;;;;;;;1.63;0.25;;;;;;;;;;20976785;28;20582;-77
2022/06/07 18:14:29;;;;;;;0.50;0.30;;;;;;;;;;20971246;28;20226;-75
2022/06/07 18:24:31;;;;;;;1.75;0.20;;;;;;;;;;20975388;28;20329;-75
2022/06/07 18:34:33;;;;;;;0.15;0.15;;;;;;;;;;20977344;28;20202;-75
2022/06/07 18:44:35;;;;;;;0.50;0.30;;;;;;;;;;20986428;28;20586;-75
2022/06/07 18:54:37;;;;;;;0.20;0.20;;;;;;;;;;21055206;22;20294;-75
2022/06/07 19:04:39;;;;;;;2.65;0.40;;;;;;;;;;21030462;28;20718;-74
2022/06/07 19:14:42;;;;;;;0.28;0.20;;;;;;;;;;21046365;28;20258;-74
2022/06/07 19:24:44;;;;;;;1.95;0.32;;;;;;;;;;21043233;28;20278;-74
2022/06/07 19:34:46;;;;;;;0.40;0.30;;;;;;;;;;21015766;28;20240;-74
2022/06/07 19:44:48;;;;;;;0.30;0.30;;;;;;;;;;21015451;28;20226;-74
2022/06/07 19:55:11;;;;;;;0.90;0.30;;;;;;;;;;21054273;28;20446;-76
2022/06/07 20:05:14;;;;;;;0.45;0.20;;;;;;;;;;21031469;28;20237;-75
2022/06/07 20:15:17;;;;;;;0.40;0.30;;;;;;;;;;21035401;28;20227;-74
2022/06/07 20:25:19;;;;;;;0.50;0.20;;;;;;;;;;21032164;28;20470;-75
2022/06/07 20:35:23;;;;;;;0.32;0.30;;;;;;;;;;21017230;28;20572;-75
2022/06/07 20:45:25;;;;;;;0.68;0.20;;;21.30;99.90;;;;;;21021833;28;20228;-74
2022/06/07 20:55:27;;;;;;;1.45;0.40;;;;;;;;;;21019341;28;20222;-75
2022/06/07 21:05:30;;;;;;;0.38;0.30;;;;;;;;;;21029166;28;20695;-75
2022/06/07 21:15:33;;;;;;;0.73;0.38;;;;;;;;;;21051459;28;20227;-74
2022/06/07 21:25:36;;;;;;;0.40;0.35;;;;;;;;;;21037563;28;20220;-75
2022/06/07 21:35:38;;;;;;;0.88;0.47;;;;;;;;;;21037408;28;20197;-75
2022/06/07 21:45:40;;;;;;;1.25;0.35;;;;;;;;;;21035712;28;20223;-75
2022/06/07 21:55:43;;;;;;;0.40;0.30;;;;;;;;;;21035414;28;20640;-76
2022/06/07 22:05:49;;;;;;;0.57;0.38;;;20.60;99.90;;;;;;21036374;28;20264;-74
2022/06/07 22:15:52;;;;;;;0.20;0.20;;;20.40;99.90;;;;;;21035255;28;20209;-74
2022/06/07 22:25:54;;;;;;;1.10;0.50;;;;;;;;;;21035394;28;20265;-73
2022/06/07 22:35:56;;;;;;;0.80;0.40;;;;;;;;;;21050234;28;20576;-75
2022/06/07 22:45:58;;;;;;;0.30;0.30;;;;;;;;;;21032835;28;20544;-74
2022/06/07 22:56:02;;;;;;;0.50;0.30;;;20.00;99.90;;;;;;21032136;28;20275;-74
2022/06/07 23:06:08;;;;;;;1.23;0.47;;;19.90;99.90;;;;;;21014601;28;20223;-74
2022/06/07 23:26:30;;;;;;;0.70;0.30;;;;;;;;;;21046021;28;20284;-76
2022/06/07 23:36:33;;;;;;;0.53;0.37;;;;;;;;;;21062038;28;20250;-75
2022/06/07 23:46:36;;;;;;;0.40;0.30;;;;;;;;;;21045665;28;20223;-74
2022/06/07 23:56:40;;;;;;;1.30;0.60;;;;;;;;;;21059901;28;20223;-74
